createdAt,value
2019-03-03T00:00:45.445Z,22.54
2019-03-03T00:01:46.962Z,22.67
2019-03-03T00:02:48.094Z,22.53
2019-03-03T00:03:49.210Z,22.63
2019-03-03T00:04:50.434Z,22.70
2019-03-03T00:05:51.600Z,22.67
2019-03-03T00:06:52.758Z,22.75
2019-03-03T00:07:54.052Z,22.78
2019-03-03T00:08:55.167Z,22.81
2019-03-03T00:09:56.289Z,22.81
2019-03-03T00:10:57.404Z,22.87
2019-03-03T00:11:58.515Z,22.77
2019-03-03T00:12:59.645Z,22.86
2019-03-03T00:14:00.752Z,22.78
2019-03-03T00:15:02.865Z,22.81
2019-03-03T00:16:04.085Z,22.81
2019-03-03T00:17:05.305Z,22.88
2019-03-03T00:18:06.462Z,22.91
2019-03-03T00:19:07.578Z,22.93
2019-03-03T00:20:13.100Z,22.91
2019-03-03T00:21:14.217Z,22.91
2019-03-03T00:22:15.335Z,22.93
2019-03-03T00:23:16.588Z,22.96
2019-03-03T00:24:17.702Z,23.09
2019-03-03T00:25:18.819Z,23.00
2019-03-03T00:26:20.044Z,23.01
2019-03-03T00:27:21.157Z,23.03
2019-03-03T00:28:22.388Z,23.04
2019-03-03T00:29:23.505Z,23.06
2019-03-03T00:30:24.845Z,23.05
2019-03-03T00:31:34.484Z,23.09
2019-03-03T00:32:35.601Z,23.11
2019-03-03T00:33:36.869Z,23.08
2019-03-03T00:34:37.984Z,23.15
2019-03-03T00:35:39.097Z,23.12
2019-03-03T00:36:58.512Z,23.24
2019-03-03T00:38:04.071Z,23.18
2019-03-03T00:39:12.965Z,23.18
2019-03-03T00:40:27.782Z,23.11
2019-03-03T00:41:36.323Z,23.11
2019-03-03T00:42:39.339Z,23.18
2019-03-03T00:43:48.392Z,23.24
2019-03-03T00:44:53.923Z,23.27
2019-03-03T00:46:15.228Z,23.22
2019-03-03T00:47:20.772Z,23.35
2019-03-03T00:48:35.853Z,23.33
2019-03-03T00:49:38.879Z,23.32
2019-03-03T00:50:44.527Z,23.30
2019-03-03T00:51:47.557Z,23.27
2019-03-03T00:53:05.659Z,23.28
2019-03-03T00:54:20.353Z,23.34
2019-03-03T00:55:26.052Z,23.30
2019-03-03T00:56:29.083Z,23.37
2019-03-03T00:57:32.107Z,23.31
2019-03-03T00:58:35.138Z,23.33
2019-03-03T00:59:44.044Z,23.30
2019-03-03T01:00:51.041Z,23.37
2019-03-03T01:02:00.124Z,23.33
2019-03-03T01:03:03.112Z,23.31
2019-03-03T01:04:08.943Z,23.30
2019-03-03T01:05:27.120Z,23.37
2019-03-03T01:06:30.147Z,23.41
2019-03-03T01:07:33.175Z,23.32
2019-03-03T01:08:48.054Z,23.47
2019-03-03T01:09:51.173Z,23.49
2019-03-03T01:10:59.992Z,23.52
2019-03-03T01:12:03.057Z,23.49
2019-03-03T01:13:11.806Z,23.45
2019-03-03T01:14:14.830Z,23.48
2019-03-03T01:15:20.855Z,23.47
2019-03-03T01:16:35.746Z,23.60
2019-03-03T01:17:41.308Z,23.50
2019-03-03T01:18:46.837Z,23.51
2019-03-03T01:19:52.363Z,23.52
2019-03-03T01:21:01.453Z,23.48
2019-03-03T01:22:04.470Z,23.52
2019-03-03T01:23:07.546Z,23.49
2019-03-03T01:24:16.642Z,23.57
2019-03-03T01:25:17.755Z,23.53
2019-03-03T01:26:18.871Z,23.62
2019-03-03T01:27:19.982Z,23.55
2019-03-03T01:28:21.104Z,23.51
2019-03-03T01:29:22.229Z,23.58
2019-03-03T01:30:23.348Z,23.51
2019-03-03T01:31:24.467Z,23.54
2019-03-03T01:32:26.081Z,23.56
2019-03-03T01:33:27.232Z,23.56
2019-03-03T01:34:28.456Z,23.52
2019-03-03T01:35:29.576Z,23.55
2019-03-03T01:36:30.683Z,23.55
2019-03-03T01:37:31.800Z,23.59
2019-03-03T01:38:32.929Z,23.63
2019-03-03T01:39:34.041Z,23.61
2019-03-03T01:40:35.352Z,23.63
2019-03-03T01:41:39.407Z,23.55
2019-03-03T01:42:40.523Z,23.50
2019-03-03T01:43:41.712Z,23.55
2019-03-03T01:44:42.832Z,23.40
2019-03-03T01:45:43.947Z,23.48
2019-03-03T01:46:45.060Z,23.49
2019-03-03T01:47:46.176Z,23.52
2019-03-03T01:48:47.509Z,23.58
2019-03-03T01:49:48.753Z,23.53
2019-03-03T01:50:49.842Z,23.55
2019-03-03T01:51:50.961Z,23.57
2019-03-03T01:52:52.178Z,23.53
2019-03-03T01:53:53.416Z,23.57
2019-03-03T01:54:54.531Z,23.54
2019-03-03T01:55:55.644Z,23.62
2019-03-03T01:56:56.756Z,23.55
2019-03-03T01:57:57.879Z,23.51
2019-03-03T01:58:59.019Z,23.50
2019-03-03T02:00:00.362Z,23.52
2019-03-03T02:01:01.574Z,23.56
2019-03-03T02:02:02.779Z,23.54
2019-03-03T02:03:05.195Z,23.56
2019-03-03T02:04:06.569Z,23.58
2019-03-03T02:05:07.817Z,23.61
2019-03-03T02:06:09.696Z,23.68
2019-03-03T02:07:10.807Z,23.61
2019-03-03T02:08:11.923Z,23.63
2019-03-03T02:09:13.148Z,23.62
2019-03-03T02:10:15.665Z,23.55
2019-03-03T02:11:16.977Z,23.63
2019-03-03T02:12:18.581Z,23.55
2019-03-03T02:13:19.697Z,23.57
2019-03-03T02:14:20.946Z,23.60
2019-03-03T02:15:22.268Z,23.62
2019-03-03T02:16:23.488Z,23.55
2019-03-03T02:17:24.602Z,23.60
2019-03-03T02:18:25.913Z,23.67
2019-03-03T02:19:27.262Z,23.69
2019-03-03T02:20:28.377Z,23.71
2019-03-03T02:21:29.490Z,23.67
2019-03-03T02:22:30.677Z,23.64
2019-03-03T02:23:31.793Z,23.67
2019-03-03T02:24:32.922Z,23.61
2019-03-03T02:25:34.037Z,23.59
2019-03-03T02:26:35.154Z,23.53
2019-03-03T02:27:36.363Z,23.54
2019-03-03T02:28:37.486Z,23.56
2019-03-03T02:29:38.636Z,23.55
2019-03-03T02:30:39.855Z,23.52
2019-03-03T02:31:40.967Z,23.58
2019-03-03T02:32:42.091Z,23.58
2019-03-03T02:33:43.306Z,23.58
2019-03-03T02:34:44.463Z,23.58
2019-03-03T02:35:45.978Z,23.59
2019-03-03T02:36:47.791Z,23.63
2019-03-03T02:37:48.899Z,23.62
2019-03-03T02:38:50.011Z,23.65
2019-03-03T02:39:51.157Z,23.65
2019-03-03T02:40:52.272Z,23.66
2019-03-03T02:41:53.488Z,23.65
2019-03-03T02:42:54.721Z,23.59
2019-03-03T02:43:55.824Z,23.66
2019-03-03T02:44:57.001Z,23.55
2019-03-03T02:45:58.113Z,23.62
2019-03-03T02:46:59.236Z,23.62
2019-03-03T02:48:00.354Z,23.63
2019-03-03T02:49:01.494Z,23.56
2019-03-03T02:50:04.717Z,23.61
2019-03-03T02:51:05.931Z,23.62
2019-03-03T02:52:07.042Z,23.70
2019-03-03T02:53:08.155Z,23.63
2019-03-03T02:54:09.274Z,23.59
2019-03-03T02:55:14.104Z,23.55
2019-03-03T02:56:15.213Z,23.56
2019-03-03T02:57:16.326Z,23.62
2019-03-03T02:58:17.446Z,23.66
2019-03-03T02:59:18.646Z,23.52
2019-03-03T03:00:20.968Z,23.54
2019-03-03T03:01:23.996Z,23.60
2019-03-03T03:02:42.134Z,23.58
2019-03-03T03:03:43.247Z,23.65
2019-03-03T03:04:44.367Z,23.61
2019-03-03T03:05:50.190Z,23.60
2019-03-03T03:06:53.915Z,23.64
2019-03-03T03:08:05.715Z,23.66
2019-03-03T03:09:12.053Z,23.64
2019-03-03T03:10:21.304Z,23.68
2019-03-03T03:11:36.264Z,23.66
2019-03-03T03:12:39.292Z,23.74
2019-03-03T03:13:45.197Z,23.66
2019-03-03T03:14:50.788Z,23.71
2019-03-03T03:16:08.628Z,23.74
2019-03-03T03:17:20.275Z,23.77
2019-03-03T03:18:40.049Z,23.79
2019-03-03T03:19:48.643Z,23.86
2019-03-03T03:21:00.459Z,23.80
2019-03-03T03:22:06.054Z,23.82
2019-03-03T03:23:09.083Z,23.80
2019-03-03T03:24:28.756Z,23.88
2019-03-03T03:25:37.353Z,23.87
2019-03-03T03:26:46.317Z,23.86
2019-03-03T03:27:55.503Z,23.96
2019-03-03T03:29:01.034Z,23.87
2019-03-03T03:30:06.255Z,23.91
2019-03-03T03:31:11.984Z,23.87
2019-03-03T03:32:15.009Z,23.86
2019-03-03T03:33:24.028Z,23.92
2019-03-03T03:34:33.054Z,23.97
2019-03-03T03:35:36.060Z,23.92
2019-03-03T03:36:39.078Z,23.95
2019-03-03T03:37:44.884Z,23.92
2019-03-03T03:38:48.107Z,23.90
2019-03-03T03:39:51.130Z,23.92
2019-03-03T03:40:59.976Z,23.91
2019-03-03T03:42:09.236Z,23.88
2019-03-03T03:43:12.262Z,23.97
2019-03-03T03:44:18.321Z,23.92
2019-03-03T03:45:30.851Z,23.90
2019-03-03T03:46:50.347Z,23.96
2019-03-03T03:47:53.371Z,23.88
2019-03-03T03:49:08.251Z,23.83
2019-03-03T03:50:11.266Z,23.84
2019-03-03T03:51:22.933Z,23.96
2019-03-03T03:52:25.958Z,23.95
2019-03-03T03:53:31.741Z,23.92
2019-03-03T03:54:34.773Z,23.95
2019-03-03T03:55:53.240Z,23.90
2019-03-03T03:56:56.253Z,24.01
2019-03-03T03:58:01.917Z,23.98
2019-03-03T03:59:07.702Z,23.95
2019-03-03T04:00:23.238Z,23.95
2019-03-03T04:01:35.412Z,23.95
2019-03-03T04:02:38.431Z,23.94
2019-03-03T04:03:47.512Z,23.84
2019-03-03T04:04:53.279Z,23.92
2019-03-03T04:06:05.064Z,23.93
2019-03-03T04:07:08.095Z,23.94
2019-03-03T04:08:27.438Z,24.00
2019-03-03T04:09:30.457Z,24.01
2019-03-03T04:10:33.475Z,23.92
2019-03-03T04:11:45.298Z,23.94
2019-03-03T04:12:48.324Z,24.03
2019-03-03T04:13:51.345Z,24.04
2019-03-03T04:14:57.219Z,24.01
2019-03-03T04:16:00.427Z,23.97
2019-03-03T04:17:03.466Z,23.95
2019-03-03T04:18:09.258Z,23.95
2019-03-03T04:19:18.078Z,23.91
2019-03-03T04:20:27.170Z,23.92
2019-03-03T04:21:46.599Z,23.98
2019-03-03T04:22:49.733Z,24.05
2019-03-03T04:24:04.854Z,23.97
2019-03-03T04:25:07.885Z,23.99
2019-03-03T04:26:28.780Z,23.99
2019-03-03T04:27:48.420Z,24.01
2019-03-03T04:28:57.056Z,23.92
2019-03-03T04:30:00.363Z,23.92
2019-03-03T04:31:03.502Z,23.99
2019-03-03T04:32:12.381Z,24.04
2019-03-03T04:33:24.158Z,24.10
2019-03-03T04:34:32.947Z,24.11
2019-03-03T04:35:38.767Z,23.98
2019-03-03T04:36:47.561Z,24.04
2019-03-03T04:37:59.206Z,24.07
2019-03-03T04:39:02.226Z,24.04
2019-03-03T04:40:06.685Z,23.98
2019-03-03T04:41:18.870Z,24.01
2019-03-03T04:42:33.965Z,23.99
2019-03-03T04:43:39.534Z,24.00
2019-03-03T04:44:51.864Z,23.95
2019-03-03T04:45:54.893Z,24.04
2019-03-03T04:47:00.747Z,24.05
2019-03-03T04:48:03.769Z,24.06
2019-03-03T04:49:09.309Z,24.06
2019-03-03T04:50:15.841Z,24.00
2019-03-03T04:51:21.569Z,23.99
2019-03-03T04:52:24.590Z,24.03
2019-03-03T04:53:27.644Z,24.06
2019-03-03T04:54:47.068Z,24.05
2019-03-03T04:56:06.866Z,24.02
2019-03-03T04:57:21.645Z,24.04
2019-03-03T04:58:36.277Z,24.00
2019-03-03T04:59:39.308Z,24.01
2019-03-03T05:00:45.404Z,24.03
2019-03-03T05:01:50.972Z,24.11
2019-03-03T05:02:59.545Z,24.10
2019-03-03T05:04:05.097Z,24.13
2019-03-03T05:05:08.512Z,24.13
2019-03-03T05:06:29.572Z,24.12
2019-03-03T05:07:38.308Z,24.12
2019-03-03T05:08:41.327Z,24.04
2019-03-03T05:10:00.932Z,24.08
2019-03-03T05:11:03.948Z,24.06
2019-03-03T05:12:16.031Z,24.08
2019-03-03T05:13:19.077Z,24.06
2019-03-03T05:14:22.111Z,24.07
2019-03-03T05:15:25.132Z,24.06
2019-03-03T05:16:28.155Z,24.02
2019-03-03T05:17:36.736Z,24.09
2019-03-03T05:18:39.764Z,24.15
2019-03-03T05:19:42.787Z,24.11
2019-03-03T05:20:45.410Z,24.13
2019-03-03T05:21:46.525Z,24.10
2019-03-03T05:22:47.640Z,24.03
2019-03-03T05:23:48.771Z,24.05
2019-03-03T05:24:49.991Z,24.08
2019-03-03T05:25:51.109Z,24.05
2019-03-03T05:26:52.227Z,23.99
2019-03-03T05:27:53.450Z,24.07
2019-03-03T05:28:54.577Z,24.13
2019-03-03T05:29:55.695Z,24.00
2019-03-03T05:30:56.805Z,24.04
2019-03-03T05:31:58.029Z,23.98
2019-03-03T05:32:59.139Z,24.02
2019-03-03T05:34:00.404Z,23.97
2019-03-03T05:35:01.717Z,24.00
2019-03-03T05:36:02.929Z,23.94
2019-03-03T05:37:04.145Z,23.95
2019-03-03T05:38:05.252Z,23.95
2019-03-03T05:39:06.586Z,24.01
2019-03-03T05:40:07.702Z,23.99
2019-03-03T05:41:08.924Z,23.97
2019-03-03T05:42:10.041Z,23.99
2019-03-03T05:43:11.161Z,23.99
2019-03-03T05:44:12.284Z,24.08
2019-03-03T05:45:13.401Z,24.04
2019-03-03T05:46:14.625Z,24.03
2019-03-03T05:47:15.856Z,24.00
2019-03-03T05:48:16.968Z,24.01
2019-03-03T05:49:18.365Z,24.01
2019-03-03T05:50:19.479Z,24.00
2019-03-03T05:51:20.605Z,24.02
2019-03-03T05:52:21.721Z,24.02
2019-03-03T05:53:22.937Z,23.99
2019-03-03T05:54:24.365Z,23.98
2019-03-03T05:55:25.480Z,23.97
2019-03-03T05:56:26.600Z,24.02
2019-03-03T05:57:27.717Z,24.01
2019-03-03T05:58:28.837Z,24.03
2019-03-03T05:59:30.076Z,24.04
2019-03-03T06:00:31.305Z,24.03
2019-03-03T06:01:32.444Z,24.03
2019-03-03T06:02:33.554Z,24.07
2019-03-03T06:03:34.673Z,24.11
2019-03-03T06:04:35.804Z,24.05
2019-03-03T06:05:37.026Z,24.04
2019-03-03T06:06:38.247Z,24.01
2019-03-03T06:07:39.361Z,24.08
2019-03-03T06:08:40.480Z,24.17
2019-03-03T06:09:41.639Z,24.11
2019-03-03T06:10:42.757Z,24.11
2019-03-03T06:11:43.876Z,24.12
2019-03-03T06:12:44.984Z,24.09
2019-03-03T06:13:46.104Z,24.08
2019-03-03T06:14:47.261Z,24.08
2019-03-03T06:15:48.384Z,24.09
2019-03-03T06:16:49.607Z,24.10
2019-03-03T06:17:50.724Z,24.20
2019-03-03T06:18:51.842Z,24.21
2019-03-03T06:19:52.998Z,24.15
2019-03-03T06:20:54.132Z,24.18
2019-03-03T06:21:55.229Z,24.15
2019-03-03T06:22:56.345Z,24.15
2019-03-03T06:23:57.464Z,24.15
2019-03-03T06:24:58.627Z,24.11
2019-03-03T06:25:59.853Z,24.09
2019-03-03T06:27:00.966Z,24.08
2019-03-03T06:28:02.188Z,24.05
2019-03-03T06:29:03.300Z,23.97
2019-03-03T06:30:08.032Z,23.98
2019-03-03T06:31:09.144Z,24.05
2019-03-03T06:32:10.261Z,24.05
2019-03-03T06:33:11.372Z,24.11
2019-03-03T06:34:12.496Z,24.04
2019-03-03T06:35:13.643Z,24.13
2019-03-03T06:36:14.757Z,24.17
2019-03-03T06:37:15.872Z,24.04
2019-03-03T06:38:17.070Z,24.06
2019-03-03T06:39:18.187Z,24.13
2019-03-03T06:40:19.309Z,24.09
2019-03-03T06:41:20.430Z,24.08
2019-03-03T06:42:21.551Z,24.18
2019-03-03T06:43:22.668Z,24.13
2019-03-03T06:44:23.794Z,24.15
2019-03-03T06:45:24.953Z,24.05
2019-03-03T06:46:26.068Z,24.10
2019-03-03T06:47:27.301Z,24.09
2019-03-03T06:48:28.422Z,23.99
2019-03-03T06:49:29.549Z,24.01
2019-03-03T06:50:30.676Z,24.03
2019-03-03T06:51:33.769Z,24.04
2019-03-03T06:52:34.873Z,24.03
2019-03-03T06:53:35.988Z,24.02
2019-03-03T06:54:37.209Z,24.01
2019-03-03T06:55:38.340Z,23.98
2019-03-03T06:56:39.457Z,23.95
2019-03-03T06:57:40.570Z,23.99
2019-03-03T06:58:41.691Z,24.03
2019-03-03T06:59:42.807Z,24.01
2019-03-03T07:00:43.945Z,24.06
2019-03-03T07:01:45.057Z,24.09
2019-03-03T07:02:46.172Z,24.13
2019-03-03T07:03:47.294Z,24.13
2019-03-03T07:04:48.412Z,24.11
2019-03-03T07:05:49.642Z,24.10
2019-03-03T07:06:50.755Z,24.06
2019-03-03T07:07:51.874Z,24.06
2019-03-03T07:08:52.985Z,24.05
2019-03-03T07:09:54.107Z,24.01
2019-03-03T07:10:55.234Z,23.97
2019-03-03T07:11:56.452Z,23.94
2019-03-03T07:12:57.663Z,24.00
2019-03-03T07:13:58.776Z,23.94
2019-03-03T07:14:59.894Z,23.89
2019-03-03T07:16:01.016Z,23.82
2019-03-03T07:17:02.133Z,23.74
2019-03-03T07:18:03.240Z,23.64
2019-03-03T07:19:04.358Z,23.61
2019-03-03T07:20:07.877Z,23.43
2019-03-03T07:21:09.006Z,23.33
2019-03-03T07:22:10.120Z,23.29
2019-03-03T07:23:11.236Z,23.25
2019-03-03T07:24:12.352Z,23.20
2019-03-03T07:25:13.563Z,23.17
2019-03-03T07:26:14.696Z,23.04
2019-03-03T07:27:15.920Z,22.97
2019-03-03T07:28:17.333Z,22.91
2019-03-03T07:29:18.550Z,22.78
2019-03-03T07:30:19.675Z,22.68
2019-03-03T07:31:21.220Z,22.61
2019-03-03T07:32:22.337Z,22.41
2019-03-03T07:33:27.865Z,22.18
2019-03-03T07:34:28.980Z,22.18
2019-03-03T07:35:30.205Z,22.04
2019-03-03T07:36:31.334Z,21.94
2019-03-03T07:37:32.549Z,21.81
2019-03-03T07:38:33.669Z,21.63
2019-03-03T07:39:34.776Z,21.59
2019-03-03T07:40:35.889Z,21.51
2019-03-03T07:41:37.049Z,21.55
2019-03-03T07:42:38.168Z,21.41
2019-03-03T07:43:39.283Z,21.32
2019-03-03T07:44:40.406Z,21.19
2019-03-03T07:45:41.513Z,21.17
2019-03-03T07:46:42.682Z,21.10
2019-03-03T07:47:43.796Z,21.02
2019-03-03T07:48:44.913Z,20.97
2019-03-03T07:49:46.030Z,20.97
2019-03-03T07:50:47.155Z,20.90
2019-03-03T07:51:48.576Z,20.88
2019-03-03T07:52:49.795Z,20.84
2019-03-03T07:53:51.365Z,20.77
2019-03-03T07:54:52.479Z,20.64
2019-03-03T07:55:53.594Z,20.61
2019-03-03T07:56:54.871Z,20.62
2019-03-03T07:57:56.096Z,20.57
2019-03-03T07:58:57.217Z,20.64
2019-03-03T07:59:58.440Z,20.50
2019-03-03T08:00:59.573Z,20.52
2019-03-03T08:02:00.702Z,20.47
2019-03-03T08:03:01.825Z,20.36
2019-03-03T08:04:03.132Z,20.38
2019-03-03T08:05:06.646Z,20.30
2019-03-03T08:06:07.766Z,20.26
2019-03-03T08:07:08.894Z,20.26
2019-03-03T08:08:10.003Z,20.31
2019-03-03T08:09:11.178Z,20.29
2019-03-03T08:10:13.588Z,20.23
2019-03-03T08:11:14.705Z,20.23
2019-03-03T08:12:15.969Z,20.21
2019-03-03T08:13:17.092Z,20.43
2019-03-03T08:14:18.209Z,20.55
2019-03-03T08:15:19.344Z,20.55
2019-03-03T08:16:20.463Z,20.45
2019-03-03T08:17:21.589Z,20.75
2019-03-03T08:18:22.709Z,20.66
2019-03-03T08:19:23.827Z,20.52
2019-03-03T08:20:24.948Z,20.39
2019-03-03T08:21:26.065Z,20.45
2019-03-03T08:22:27.197Z,20.35
2019-03-03T08:23:28.414Z,20.42
2019-03-03T08:24:29.612Z,20.37
2019-03-03T08:25:30.733Z,20.36
2019-03-03T08:26:31.877Z,20.40
2019-03-03T08:27:32.964Z,20.33
2019-03-03T08:28:34.116Z,20.36
2019-03-03T08:29:35.204Z,20.41
2019-03-03T08:30:36.426Z,20.31
2019-03-03T08:31:37.547Z,20.38
2019-03-03T08:32:38.786Z,20.34
2019-03-03T08:33:39.939Z,20.37
2019-03-03T08:34:41.057Z,20.40
2019-03-03T08:35:42.168Z,20.41
2019-03-03T08:36:43.287Z,20.33
2019-03-03T08:37:44.396Z,20.40
2019-03-03T08:38:45.630Z,20.35
2019-03-03T08:39:46.854Z,20.38
2019-03-03T08:40:47.975Z,20.32
2019-03-03T08:41:51.005Z,20.28
2019-03-03T08:43:12.181Z,20.35
2019-03-03T08:44:15.205Z,20.41
2019-03-03T08:45:18.432Z,20.39
2019-03-03T08:46:30.441Z,20.45
2019-03-03T08:47:33.469Z,20.40
2019-03-03T08:48:42.099Z,20.37
2019-03-03T08:49:45.125Z,20.38
2019-03-03T08:50:50.676Z,20.32
2019-03-03T08:51:53.693Z,20.34
2019-03-03T08:53:02.498Z,20.41
2019-03-03T08:54:11.101Z,20.45
2019-03-03T08:55:14.127Z,20.54
2019-03-03T08:56:22.983Z,20.49
2019-03-03T08:57:26.004Z,20.51
2019-03-03T08:58:45.546Z,20.47
2019-03-03T08:59:57.396Z,20.58
2019-03-03T09:01:03.466Z,20.69
2019-03-03T09:02:06.497Z,20.66
2019-03-03T09:03:18.329Z,20.87
2019-03-03T09:04:26.976Z,20.87
2019-03-03T09:05:32.712Z,20.76
2019-03-03T09:06:47.395Z,20.80
2019-03-03T09:08:02.466Z,20.77
2019-03-03T09:09:22.633Z,20.64
2019-03-03T09:10:25.754Z,20.61
2019-03-03T09:11:28.836Z,20.61
2019-03-03T09:12:31.837Z,20.61
2019-03-03T09:13:34.858Z,20.61
2019-03-03T09:14:46.815Z,20.56
2019-03-03T09:16:01.633Z,20.59
2019-03-03T09:17:07.194Z,20.58
2019-03-03T09:18:22.096Z,20.51
2019-03-03T09:19:25.116Z,20.55
2019-03-03T09:20:33.673Z,20.58
2019-03-03T09:21:36.692Z,20.62
2019-03-03T09:22:48.545Z,20.58
2019-03-03T09:23:57.576Z,20.77
2019-03-03T09:25:17.149Z,20.92
2019-03-03T09:26:20.176Z,20.93
2019-03-03T09:27:32.096Z,20.89
2019-03-03T09:28:37.643Z,21.00
2019-03-03T09:29:46.382Z,21.14
2019-03-03T09:30:58.050Z,21.18
2019-03-03T09:32:09.872Z,21.13
2019-03-03T09:33:30.983Z,21.21
2019-03-03T09:34:36.943Z,21.31
2019-03-03T09:35:51.835Z,21.25
2019-03-03T09:37:09.783Z,21.22
2019-03-03T09:38:29.552Z,21.28
2019-03-03T09:39:32.577Z,21.20
2019-03-03T09:40:35.599Z,21.07
2019-03-03T09:41:41.140Z,21.05
2019-03-03T09:42:52.962Z,21.03
2019-03-03T09:44:01.572Z,21.07
2019-03-03T09:45:06.688Z,20.99
2019-03-03T09:46:09.704Z,20.97
2019-03-03T09:47:24.723Z,20.90
2019-03-03T09:48:27.740Z,20.93
2019-03-03T09:49:47.669Z,20.88
2019-03-03T09:50:53.257Z,21.01
2019-03-03T09:52:12.205Z,21.27
2019-03-03T09:53:15.224Z,21.25
2019-03-03T09:54:30.329Z,21.41
2019-03-03T09:55:39.161Z,21.50
2019-03-03T09:56:42.176Z,21.58
2019-03-03T09:57:45.441Z,21.42
2019-03-03T09:58:48.460Z,21.44
2019-03-03T10:00:06.556Z,21.39
2019-03-03T10:01:15.265Z,21.35
2019-03-03T10:02:18.299Z,21.26
2019-03-03T10:03:29.918Z,21.33
2019-03-03T10:04:38.740Z,21.29
2019-03-03T10:05:44.276Z,21.28
2019-03-03T10:06:49.796Z,21.27
2019-03-03T10:07:55.471Z,21.30
2019-03-03T10:09:10.612Z,21.27
2019-03-03T10:10:25.420Z,21.15
2019-03-03T10:11:30.956Z,21.05
2019-03-03T10:12:39.524Z,21.11
2019-03-03T10:13:42.540Z,21.15
2019-03-03T10:15:03.570Z,21.18
2019-03-03T10:16:06.636Z,21.12
2019-03-03T10:17:09.951Z,21.13
2019-03-03T10:18:12.965Z,21.21
2019-03-03T10:19:32.605Z,21.09
2019-03-03T10:20:35.621Z,21.11
2019-03-03T10:21:38.657Z,21.16
2019-03-03T10:22:41.681Z,21.20
2019-03-03T10:23:56.889Z,21.27
2019-03-03T10:24:59.917Z,21.26
2019-03-03T10:26:20.322Z,21.23
2019-03-03T10:27:28.881Z,21.24
2019-03-03T10:28:38.096Z,21.20
2019-03-03T10:29:44.186Z,21.36
2019-03-03T10:30:47.206Z,21.33
2019-03-03T10:31:56.042Z,21.37
2019-03-03T10:33:15.898Z,21.26
2019-03-03T10:34:18.915Z,21.22
2019-03-03T10:35:21.935Z,21.28
2019-03-03T10:36:27.508Z,21.36
2019-03-03T10:37:33.098Z,21.42
2019-03-03T10:38:36.499Z,21.34
2019-03-03T10:39:39.543Z,21.28
2019-03-03T10:40:42.557Z,21.25
2019-03-03T10:41:45.576Z,21.27
2019-03-03T10:43:06.556Z,21.18
2019-03-03T10:44:18.537Z,21.19
2019-03-03T10:45:21.569Z,21.14
2019-03-03T10:46:36.480Z,21.24
2019-03-03T10:47:39.519Z,21.17
2019-03-03T10:48:48.386Z,21.12
2019-03-03T10:49:51.405Z,21.25
2019-03-03T10:50:54.427Z,21.28
2019-03-03T10:52:06.252Z,21.20
2019-03-03T10:53:09.284Z,21.08
2019-03-03T10:54:12.320Z,21.11
2019-03-03T10:55:32.271Z,21.25
2019-03-03T10:56:35.284Z,21.31
2019-03-03T10:57:55.138Z,21.29
2019-03-03T10:59:07.017Z,21.17
2019-03-03T11:00:15.428Z,21.05
2019-03-03T11:01:21.227Z,21.13
2019-03-03T11:02:27.440Z,21.20
2019-03-03T11:03:30.459Z,21.32
2019-03-03T11:04:42.318Z,21.17
2019-03-03T11:05:54.949Z,21.15
2019-03-03T11:06:57.960Z,21.31
2019-03-03T11:08:17.450Z,21.37
2019-03-03T11:09:21.367Z,21.35
2019-03-03T11:10:40.736Z,21.27
2019-03-03T11:11:46.269Z,21.17
2019-03-03T11:12:58.155Z,21.27
2019-03-03T11:14:13.026Z,21.22
2019-03-03T11:15:24.654Z,21.21
2019-03-03T11:16:36.579Z,21.27
2019-03-03T11:17:56.265Z,21.22
2019-03-03T11:19:01.806Z,21.28
2019-03-03T11:20:06.127Z,21.25
2019-03-03T11:21:09.150Z,21.20
2019-03-03T11:22:17.935Z,21.32
2019-03-03T11:23:37.293Z,21.19
2019-03-03T11:24:40.408Z,21.20
2019-03-03T11:25:45.977Z,21.31
2019-03-03T11:27:05.724Z,21.38
2019-03-03T11:28:08.854Z,21.30
2019-03-03T11:29:20.973Z,21.29
2019-03-03T11:30:26.765Z,21.32
2019-03-03T11:31:44.785Z,21.32
2019-03-03T11:32:53.485Z,21.24
2019-03-03T11:33:59.445Z,21.25
2019-03-03T11:35:08.245Z,21.33
2019-03-03T11:36:11.366Z,21.40
2019-03-03T11:37:17.156Z,21.26
2019-03-03T11:38:29.155Z,21.37
2019-03-03T11:39:49.052Z,21.38
2019-03-03T11:40:52.067Z,21.41
2019-03-03T11:42:09.946Z,21.49
2019-03-03T11:43:27.820Z,21.52
2019-03-03T11:44:49.164Z,21.45
2019-03-03T11:45:55.332Z,21.46
2019-03-03T11:47:04.056Z,21.50
2019-03-03T11:48:07.080Z,21.61
2019-03-03T11:49:10.101Z,21.63
2019-03-03T11:50:18.803Z,21.62
2019-03-03T11:51:27.861Z,21.80
2019-03-03T11:52:39.480Z,22.03
2019-03-03T11:53:45.231Z,21.99
2019-03-03T11:55:06.501Z,21.87
2019-03-03T11:56:09.530Z,21.96
2019-03-03T11:57:27.616Z,21.91
2019-03-03T11:58:30.652Z,21.74
2019-03-03T11:59:45.432Z,21.68
2019-03-03T12:01:05.088Z,21.69
2019-03-03T12:02:16.961Z,21.75
2019-03-03T12:03:36.520Z,21.54
2019-03-03T12:04:39.532Z,21.61
2019-03-03T12:05:42.644Z,21.68
2019-03-03T12:06:46.808Z,21.66
2019-03-03T12:08:08.128Z,21.63
2019-03-03T12:09:23.668Z,21.66
2019-03-03T12:10:26.686Z,21.56
2019-03-03T12:11:32.388Z,21.57
2019-03-03T12:12:44.548Z,21.43
2019-03-03T12:13:50.628Z,21.58
2019-03-03T12:15:02.500Z,21.59
2019-03-03T12:16:05.666Z,21.52
2019-03-03T12:17:11.519Z,21.55
2019-03-03T12:18:14.541Z,21.55
2019-03-03T12:19:17.562Z,21.57
2019-03-03T12:20:20.584Z,21.43
2019-03-03T12:21:23.603Z,21.50
2019-03-03T12:22:26.620Z,21.42
2019-03-03T12:23:45.977Z,21.34
2019-03-03T12:24:48.997Z,21.26
2019-03-03T12:25:52.017Z,21.37
2019-03-03T12:27:10.127Z,21.34
2019-03-03T12:28:15.724Z,21.37
2019-03-03T12:29:24.540Z,21.38
2019-03-03T12:30:28.649Z,21.34
2019-03-03T12:31:37.666Z,21.43
2019-03-03T12:32:52.484Z,21.38
2019-03-03T12:34:04.179Z,21.45
2019-03-03T12:35:14.563Z,21.35
2019-03-03T12:36:23.182Z,21.30
2019-03-03T12:37:28.926Z,21.38
2019-03-03T12:38:48.640Z,21.45
2019-03-03T12:39:51.653Z,21.55
2019-03-03T12:41:03.278Z,21.57
2019-03-03T12:42:08.853Z,21.53
2019-03-03T12:43:14.577Z,21.47
2019-03-03T12:44:20.169Z,21.52
2019-03-03T12:45:38.067Z,21.57
2019-03-03T12:46:41.322Z,21.50
2019-03-03T12:48:01.063Z,21.47
2019-03-03T12:49:04.085Z,21.53
2019-03-03T12:50:10.307Z,21.57
2019-03-03T12:51:28.469Z,21.55
2019-03-03T12:52:31.531Z,21.58
2019-03-03T12:53:43.439Z,21.61
2019-03-03T12:54:46.454Z,21.62
2019-03-03T12:55:49.473Z,21.56
2019-03-03T12:56:52.492Z,21.52
2019-03-03T12:58:10.541Z,21.55
2019-03-03T12:59:31.741Z,21.36
2019-03-03T13:00:34.760Z,21.44
2019-03-03T13:01:40.586Z,21.42
2019-03-03T13:02:43.612Z,21.39
2019-03-03T13:03:49.569Z,21.50
2019-03-03T13:04:52.595Z,21.42
2019-03-03T13:05:58.161Z,21.32
2019-03-03T13:07:19.011Z,21.19
2019-03-03T13:08:31.331Z,21.26
2019-03-03T13:09:34.368Z,21.19
2019-03-03T13:10:45.977Z,21.19
2019-03-03T13:11:54.799Z,21.19
2019-03-03T13:12:57.821Z,21.19
2019-03-03T13:14:03.387Z,21.32
2019-03-03T13:15:28.297Z,21.23
2019-03-03T13:16:37.382Z,21.18
2019-03-03T13:17:47.933Z,21.25
2019-03-03T13:18:51.168Z,21.19
2019-03-03T13:19:54.192Z,21.22
2019-03-03T13:21:09.045Z,21.19
2019-03-03T13:22:28.377Z,21.19
2019-03-03T13:23:34.700Z,21.18
2019-03-03T13:24:37.773Z,20.99
2019-03-03T13:25:49.946Z,21.06
2019-03-03T13:27:04.854Z,21.09
2019-03-03T13:28:13.669Z,21.09
2019-03-03T13:29:22.781Z,20.94
2019-03-03T13:30:28.338Z,21.00
2019-03-03T13:31:43.233Z,20.96
2019-03-03T13:32:58.392Z,20.90
2019-03-03T13:34:13.489Z,20.87
2019-03-03T13:35:19.793Z,20.88
2019-03-03T13:36:22.811Z,20.96
2019-03-03T13:37:25.874Z,20.90
2019-03-03T13:38:37.541Z,20.81
2019-03-03T13:39:49.597Z,20.77
2019-03-03T13:41:01.515Z,20.85
2019-03-03T13:42:04.532Z,20.80
2019-03-03T13:43:05.793Z,20.85
2019-03-03T13:44:06.910Z,20.91
2019-03-03T13:45:10.530Z,20.81
2019-03-03T13:46:11.953Z,20.89
2019-03-03T13:47:13.070Z,20.78
2019-03-03T13:48:14.222Z,20.66
2019-03-03T13:49:15.334Z,20.68
2019-03-03T13:50:16.949Z,20.68
2019-03-03T13:51:18.167Z,20.67
2019-03-03T13:52:19.278Z,20.82
2019-03-03T13:53:20.411Z,20.63
2019-03-03T13:54:21.625Z,20.58
2019-03-03T13:55:22.840Z,20.72
2019-03-03T13:56:24.258Z,20.68
2019-03-03T13:57:25.367Z,20.66
2019-03-03T13:58:26.788Z,20.72
2019-03-03T13:59:27.902Z,20.79
2019-03-03T14:00:29.013Z,20.82
2019-03-03T14:01:30.330Z,20.76